Etusivu
METAR-TAF:

METAR-TAF

Lentoasemat :

Ronneby, Ruotsi

Ronnebyn lentoasema

Leveyspiiri: 56-16N, Pituuspiiri: 015-17E, korkeus merenpinnasta: 58 m

Tämänhetkinen sää

Tämä raportti tehtiin 18 minuuttia sitten, kello 12.20 UTC
Tuuli 9 kn idästä/kaakosta
Lämpötila 12°C
Kosteus 62%
Ilmanpaine 1019 hPa
Näkyvyys 10 km tai enemmän

METAR: ESDF 191220Z 11009KT 9999 VV/// 12/05 Q1019

Aika: 14:38 (12:38 UTC)

Sääennuste

Tämä raportti tehtiin 1 tunti ja 8 minuuttia sitten, kello 11.30 UTC
Ennuste voimassa 19. päivästä klo 12 UTC - 19. päivään klo 21 UTC
Tuuli 6 kn idästä
Näkyvyys 10 km tai enemmän
Muutamia pilviä 2500 ft:n korkeudessa

TAF: ESDF 191130Z 1912/1921 10006KT 9999 FEW025 RMK MIL

Säähavainnot ja -ennusteet yli 4000 lentoasemalta (METAR- ja TAF-raportit).

Käytössä olevat sääasemat on merkitty karttaan keltaisilla ja punaisilla pisteillä.

Aseta hiiri pisteen päälle nähdäksesi sääaseman nimen.

Klikkaa sitten nähdäksesi säähavainnot ja -ennusteet.

Kartan vaihtaminen: klikkaa mustalla rastilla varustettuja vihreitä pisteitä, niin voit zoomata sisään; viivalla varustettua vihreää pistettä, niin voit zoomata ulos tai vihreitä nuolia, niin pääset viereisille kartoille.


METAR-TAF: